Time;durP1;ratioP1;P1;durP2;ratioP2;P2;SDS_P1;SDS_P2;PMS_P1;PMS_P2;Temp;Humidity;BMP_temperature;BMP_pressure;BME280_temperature;BME280_humidity;BME280_pressure;Samples;Min_cycle;Max_cycle;Signal;HPM_P1;HPM_P2
2022/01/07 00:00:18;;;;;;;21.27;11.13;;;-0.20;99.90;;;;;;5013332;28;20478;-73
2022/01/07 00:02:45;;;;;;;19.70;11.63;;;-0.30;99.90;;;;;;5014073;28;20026;-73
2022/01/07 00:05:12;;;;;;;30.05;13.32;;;-0.30;99.90;;;;;;5017235;28;20064;-74
2022/01/07 00:07:39;;;;;;;22.88;12.18;;;-0.40;99.90;;;;;;5016870;28;20478;-72
2022/01/07 00:10:05;;;;;;;25.17;12.68;;;-0.40;99.90;;;;;;5017057;28;20087;-74
2022/01/07 00:12:31;;;;;;;16.60;10.68;;;-0.40;99.90;;;;;;5017301;28;20135;-73
2022/01/07 00:14:57;;;;;;;17.00;9.60;;;-0.30;99.90;;;;;;5016599;28;20116;-72
2022/01/07 00:17:22;;;;;;;24.70;12.88;;;-0.30;99.90;;;;;;5016689;28;20129;-74
2022/01/07 00:19:48;;;;;;;23.27;13.35;;;-0.30;99.90;;;;;;5016430;28;20397;-74
2022/01/07 00:22:13;;;;;;;20.38;10.15;;;-0.30;99.90;;;;;;5016307;28;20105;-74
2022/01/07 00:24:39;;;;;;;20.15;10.50;;;-0.30;99.90;;;;;;5016206;28;20168;-72
2022/01/07 00:27:07;;;;;;;20.48;11.93;;;-0.40;99.90;;;;;;5016585;28;20033;-74
2022/01/07 00:29:32;;;;;;;21.00;10.75;;;-0.40;99.90;;;;;;5016575;28;20042;-73
2022/01/07 00:31:58;;;;;;;17.88;9.82;;;-0.40;99.90;;;;;;5016086;28;20478;-73
2022/01/07 00:34:24;;;;;;;17.38;9.32;;;-0.40;99.90;;;;;;5016065;28;20048;-72
2022/01/07 00:36:49;;;;;;;16.27;9.38;;;-0.40;99.90;;;;;;5016179;28;20041;-73
2022/01/07 00:39:15;;;;;;;12.93;9.27;;;-0.20;99.90;;;;;;5031985;28;20025;-71
2022/01/07 00:41:40;;;;;;;14.98;10.57;;;0.00;99.90;;;;;;5035486;28;20021;-73
2022/01/07 00:44:06;;;;;;;16.15;10.30;;;0.00;99.90;;;;;;5031881;28;20058;-73
2022/01/07 00:46:32;;;;;;;15.98;11.10;;;-0.10;99.90;;;;;;5027398;28;20400;-74
2022/01/07 00:48:57;;;;;;;16.63;11.02;;;-0.20;99.90;;;;;;5020597;28;20052;-72
2022/01/07 00:51:23;;;;;;;15.00;10.40;;;-0.30;99.90;;;;;;5018259;28;20069;-74
2022/01/07 00:53:49;;;;;;;16.88;10.65;;;-0.30;99.90;;;;;;5016985;28;20026;-73
2022/01/07 00:56:14;;;;;;;18.88;11.07;;;-0.40;99.90;;;;;;5016403;28;20026;-73
2022/01/07 00:58:40;;;;;;;17.33;12.07;;;-0.50;99.90;;;;;;5016177;28;20104;-73
2022/01/07 01:01:06;;;;;;;16.33;12.57;;;-0.50;99.90;;;;;;5016832;28;20022;-73
2022/01/07 01:03:31;;;;;;;17.15;11.40;;;-0.50;99.90;;;;;;5016570;28;20030;-73
2022/01/07 01:05:58;;;;;;;14.02;10.75;;;-0.40;99.90;;;;;;5016535;28;20048;-73
2022/01/07 01:08:25;;;;;;;17.25;10.50;;;-0.40;99.90;;;;;;5016156;28;20022;-73
2022/01/07 01:10:51;;;;;;;18.17;10.73;;;-0.50;99.90;;;;;;5014813;28;20108;-72
2022/01/07 01:13:17;;;;;;;16.23;10.48;;;-0.40;99.90;;;;;;5015565;28;20033;-73
2022/01/07 01:15:43;;;;;;;25.42;10.43;;;-0.50;99.90;;;;;;5015303;28;20446;-73
2022/01/07 01:18:09;;;;;;;19.23;10.73;;;-0.40;99.90;;;;;;5015890;28;20114;-75
2022/01/07 01:20:35;;;;;;;16.23;10.32;;;-0.30;99.90;;;;;;5021237;28;20022;-74
2022/01/07 01:23:00;;;;;;;15.90;10.23;;;-0.40;99.90;;;;;;5027635;28;20371;-73
2022/01/07 01:25:26;;;;;;;18.10;10.93;;;-0.40;99.90;;;;;;5015917;28;20026;-73
2022/01/07 01:27:52;;;;;;;26.45;11.52;;;-0.40;99.90;;;;;;5016458;28;20037;-72
2022/01/07 01:30:18;;;;;;;17.02;11.77;;;-0.50;99.90;;;;;;5015751;28;20036;-73
2022/01/07 01:32:47;;;;;;;12.90;8.95;;;-0.50;99.90;;;;;;5014463;28;20033;-73
2022/01/07 01:35:14;;;;;;;15.35;10.05;;;-0.40;99.90;;;;;;5017829;28;20030;-72
2022/01/07 01:37:40;;;;;;;21.50;11.25;;;-0.30;99.90;;;;;;5030610;28;20026;-72
2022/01/07 01:40:06;;;;;;;18.90;9.57;;;-0.40;99.90;;;;;;5016702;28;20386;-74
2022/01/07 01:42:32;;;;;;;15.32;9.73;;;-0.40;99.90;;;;;;5017300;28;20097;-73
2022/01/07 01:44:58;;;;;;;14.68;10.60;;;-0.50;99.90;;;;;;5015839;28;20470;-74
2022/01/07 01:47:24;;;;;;;12.77;8.90;;;-0.40;99.90;;;;;;5015997;28;20030;-72
2022/01/07 01:49:49;;;;;;;18.83;10.13;;;-0.40;99.90;;;;;;5015874;28;20101;-73
2022/01/07 01:52:15;;;;;;;18.98;11.73;;;-0.40;99.90;;;;;;5017545;28;20033;-72
2022/01/07 01:54:43;;;;;;;14.80;11.40;;;-0.50;99.90;;;;;;5016581;28;20037;-74
2022/01/07 01:57:10;;;;;;;13.80;11.45;;;-0.60;99.90;;;;;;5018910;28;20508;-73
2022/01/07 01:59:36;;;;;;;19.17;12.25;;;-0.50;99.90;;;;;;5016315;28;20063;-73
2022/01/07 02:02:01;;;;;;;15.55;11.30;;;-0.60;99.90;;;;;;5015944;28;20026;-74
2022/01/07 02:04:28;;;;;;;14.45;11.70;;;-0.60;99.90;;;;;;5014755;28;20022;-73
2022/01/07 02:06:54;;;;;;;17.00;11.15;;;-0.60;99.90;;;;;;5014556;28;20036;-73
2022/01/07 02:09:25;;;;;;;21.90;12.32;;;-0.40;99.90;;;;;;5014419;28;20026;-73
2022/01/07 02:11:51;;;;;;;;;;;-0.50;99.90;;;;;;5013488;28;20041;-73
2022/01/07 02:14:16;;;;;;;21.88;12.18;;;-0.60;99.90;;;;;;5014527;28;19905;-74
2022/01/07 02:16:42;;;;;;;19.15;12.50;;;-0.60;99.90;;;;;;5021197;28;20056;-73
2022/01/07 02:19:07;;;;;;;20.25;12.27;;;-0.60;99.90;;;;;;5025312;28;20030;-73
2022/01/07 02:21:37;;;;;;;18.42;12.00;;;-0.60;99.90;;;;;;5036098;28;20017;-73
2022/01/07 02:24:03;;;;;;;21.40;13.18;;;-0.60;99.90;;;;;;5034756;28;20036;-72
2022/01/07 02:26:33;;;;;;;13.13;10.27;;;-0.60;99.90;;;;;;5019301;28;20125;-73
2022/01/07 02:28:59;;;;;;;16.67;12.40;;;-0.60;99.90;;;;;;5015672;28;20026;-73
2022/01/07 02:31:25;;;;;;;22.55;11.70;;;-0.50;99.90;;;;;;5014225;28;20117;-72
2022/01/07 02:33:50;;;;;;;18.73;12.18;;;-0.50;99.90;;;;;;5013508;28;20064;-73
2022/01/07 02:36:16;;;;;;;18.05;12.00;;;-0.40;99.90;;;;;;5012816;28;20018;-73
2022/01/07 02:38:42;;;;;;;18.50;12.10;;;-0.40;99.90;;;;;;5013795;28;20521;-72
2022/01/07 02:41:07;;;;;;;19.50;12.52;;;-0.30;99.90;;;;;;5014004;28;20053;-73
2022/01/07 02:43:33;;;;;;;18.58;11.90;;;-0.40;99.90;;;;;;5014342;28;20034;-73
2022/01/07 02:46:19;;;;;;;16.25;11.48;;;-0.40;99.90;;;;;;5042421;23;20069;-77
2022/01/07 02:48:44;;;;;;;17.67;11.88;;;-0.40;99.90;;;;;;5034788;28;20078;-76
2022/01/07 02:51:10;;;;;;;19.15;11.85;;;-0.50;99.90;;;;;;5034013;28;20128;-77
2022/01/07 02:53:35;;;;;;;25.45;12.82;;;-0.50;99.90;;;;;;5033790;28;20029;-76
2022/01/07 02:56:01;;;;;;;16.67;11.60;;;-0.50;99.90;;;;;;5037999;28;20082;-77
2022/01/07 02:58:26;;;;;;;22.17;12.35;;;-0.50;99.90;;;;;;5039360;28;20017;-77
2022/01/07 03:00:52;;;;;;;15.13;11.80;;;-0.50;99.90;;;;;;5041147;28;20116;-77
2022/01/07 03:03:18;;;;;;;16.02;10.80;;;-0.50;99.90;;;;;;5040257;28;20047;-77
2022/01/07 03:05:43;;;;;;;18.25;11.75;;;-0.40;99.90;;;;;;5041749;28;20095;-77
2022/01/07 03:08:10;;;;;;;12.38;10.30;;;-0.30;99.90;;;;;;5041204;28;20026;-76
2022/01/07 03:10:36;;;;;;;19.35;11.23;;;-0.30;99.90;;;;;;5044459;28;20032;-76
2022/01/07 03:13:03;;;;;;;15.10;10.32;;;-0.40;99.90;;;;;;5033363;28;20032;-77
2022/01/07 03:15:30;;;;;;;19.10;11.23;;;-0.40;99.90;;;;;;5039797;28;20021;-77
2022/01/07 03:17:56;;;;;;;19.35;11.65;;;-0.40;99.90;;;;;;5041267;28;20060;-78
2022/01/07 03:20:23;;;;;;;18.05;11.43;;;-0.50;99.90;;;;;;5043921;28;20025;-77
2022/01/07 03:22:49;;;;;;;16.83;13.18;;;-0.50;99.90;;;;;;5047197;28;20029;-77
2022/01/07 03:25:16;;;;;;;13.48;11.20;;;-0.50;99.90;;;;;;5045287;28;20026;-77
2022/01/07 03:27:42;;;;;;;18.17;11.40;;;-0.60;99.90;;;;;;5044165;28;20033;-77
2022/01/07 03:30:10;;;;;;;12.07;9.02;;;-0.60;99.90;;;;;;5040815;28;20029;-77
2022/01/07 03:32:36;;;;;;;14.45;8.90;;;-0.60;99.90;;;;;;5036480;28;20393;-78
2022/01/07 03:35:03;;;;;;;12.32;7.63;;;-0.40;99.90;;;;;;5039152;28;20131;-77
2022/01/07 03:37:29;;;;;;;12.68;7.88;;;-0.30;99.90;;;;;;5041313;28;20112;-78
2022/01/07 03:39:55;;;;;;;10.85;7.57;;;-0.10;99.90;;;;;;5040196;28;20045;-78
2022/01/07 03:42:20;;;;;;;10.32;7.30;;;0.00;99.90;;;;;;5039163;28;20065;-78
2022/01/07 03:44:46;;;;;;;16.20;6.97;;;0.00;99.90;;;;;;5034743;28;20026;-78
2022/01/07 03:47:11;;;;;;;12.23;6.28;;;0.00;99.90;;;;;;5033697;28;20036;-78
2022/01/07 03:49:37;;;;;;;8.40;6.20;;;0.00;99.90;;;;;;5033239;28;20026;-78
2022/01/07 03:52:04;;;;;;;8.38;6.55;;;0.00;99.90;;;;;;5033037;28;20029;-78
2022/01/07 03:54:29;;;;;;;11.85;6.72;;;0.00;99.90;;;;;;5033023;28;20029;-78
2022/01/07 03:56:55;;;;;;;10.85;7.55;;;0.10;99.90;;;;;;5033858;28;20028;-77
2022/01/07 03:59:20;;;;;;;12.50;6.75;;;0.00;99.90;;;;;;5033093;28;20440;-77
2022/01/07 04:01:46;;;;;;;8.18;6.47;;;0.00;99.90;;;;;;5033021;28;20021;-77
2022/01/07 04:04:11;;;;;;;7.60;5.80;;;-0.10;99.90;;;;;;5033528;28;20021;-77
2022/01/07 04:06:37;;;;;;;7.75;5.72;;;-0.10;99.90;;;;;;5033721;28;20056;-78
2022/01/07 04:09:03;;;;;;;7.13;5.97;;;-0.20;99.90;;;;;;5035595;28;20068;-79
2022/01/07 04:11:28;;;;;;;7.60;5.22;;;-0.20;99.90;;;;;;5034685;28;20389;-77
2022/01/07 04:13:54;;;;;;;8.77;5.22;;;-0.10;99.90;;;;;;5034738;28;20057;-79
2022/01/07 04:16:19;;;;;;;6.97;5.47;;;0.00;99.90;;;;;;5045335;28;20021;-77
2022/01/07 04:18:45;;;;;;;12.13;5.82;;;0.00;99.90;;;;;;5050984;28;20045;-76
2022/01/07 04:21:10;;;;;;;11.07;5.32;;;0.00;99.90;;;;;;5038426;28;20061;-77
2022/01/07 04:23:36;;;;;;;6.43;4.65;;;0.10;99.90;;;;;;5033618;28;20485;-77
2022/01/07 04:26:02;;;;;;;7.95;5.30;;;0.10;99.90;;;;;;5034003;28;20051;-78
2022/01/07 04:28:27;;;;;;;6.38;5.57;;;0.10;99.90;;;;;;5036921;28;20469;-77
2022/01/07 04:30:53;;;;;;;13.10;6.35;;;0.10;99.90;;;;;;5035814;28;20033;-78
2022/01/07 04:33:26;;;;;;;9.90;6.50;;;0.10;99.90;;;;;;5035364;28;20029;-77
2022/01/07 04:35:52;;;;;;;10.55;6.38;;;0.00;99.90;;;;;;5034783;28;20017;-76
2022/01/07 04:38:18;;;;;;;8.27;5.45;;;0.10;99.90;;;;;;5049048;28;20097;-79
2022/01/07 04:40:43;;;;;;;6.95;6.00;;;0.10;99.90;;;;;;5046302;28;20033;-78
2022/01/07 04:43:10;;;;;;;8.23;6.22;;;0.10;99.90;;;;;;5046814;28;20025;-78
2022/01/07 04:45:35;;;;;;;7.60;6.32;;;0.10;99.90;;;;;;5050602;28;20093;-78
2022/01/07 04:48:01;;;;;;;9.60;6.88;;;0.00;99.90;;;;;;5046673;28;20053;-77
2022/01/07 04:50:27;;;;;;;8.02;5.55;;;0.00;99.90;;;;;;5047089;28;20032;-77
2022/01/07 04:52:53;;;;;;;6.63;5.55;;;0.10;99.90;;;;;;5039420;28;20053;-78
2022/01/07 04:55:24;;;;;;;8.90;5.10;;;0.20;99.90;;;;;;5038157;28;20492;-78
2022/01/07 04:57:50;;;;;;;8.20;5.72;;;0.30;99.90;;;;;;5037624;28;20024;-78
2022/01/07 05:00:19;;;;;;;9.45;5.75;;;0.20;99.90;;;;;;5038484;28;20022;-78
2022/01/07 05:02:45;;;;;;;6.93;5.55;;;0.10;99.90;;;;;;5038883;28;20017;-79
2022/01/07 05:05:11;;;;;;;9.15;6.22;;;0.10;99.90;;;;;;5037010;28;20055;-77
2022/01/07 05:07:37;;;;;;;8.88;6.40;;;0.00;99.90;;;;;;5036443;28;20021;-78
2022/01/07 05:10:05;;;;;;;10.00;6.35;;;0.00;99.90;;;;;;5035081;28;20028;-79
2022/01/07 05:12:31;;;;;;;12.48;6.25;;;-0.10;99.90;;;;;;5035428;28;20029;-79
2022/01/07 05:14:57;;;;;;;10.82;6.38;;;-0.10;99.90;;;;;;5035316;28;20039;-78
2022/01/07 05:17:22;;;;;;;10.70;6.82;;;-0.10;99.90;;;;;;5034374;28;20061;-77
2022/01/07 05:19:48;;;;;;;9.73;6.63;;;-0.20;99.90;;;;;;5035567;28;20018;-77
2022/01/07 05:22:13;;;;;;;10.45;7.05;;;-0.20;99.90;;;;;;5036147;28;20030;-77
2022/01/07 05:24:39;;;;;;;10.00;6.80;;;-0.20;99.90;;;;;;5036328;28;20075;-78
2022/01/07 05:27:05;;;;;;;10.23;7.68;;;-0.20;99.90;;;;;;5035543;28;20100;-77
2022/01/07 05:29:34;;;;;;;10.85;7.68;;;-0.20;99.90;;;;;;5035065;28;20068;-77
2022/01/07 05:32:04;;;;;;;9.43;6.90;;;-0.30;99.90;;;;;;5035854;28;20114;-77
2022/01/07 05:34:30;;;;;;;9.10;6.93;;;-0.30;99.90;;;;;;5034997;28;20426;-77
2022/01/07 05:36:55;;;;;;;9.13;6.65;;;-0.20;99.90;;;;;;5035389;28;20120;-77
2022/01/07 05:39:21;;;;;;;11.77;6.93;;;-0.30;99.90;;;;;;5035333;28;20057;-78
2022/01/07 05:41:47;;;;;;;9.20;7.00;;;-0.30;99.90;;;;;;5041626;28;20049;-78
2022/01/07 05:44:12;;;;;;;11.77;7.53;;;-0.20;99.90;;;;;;5036985;28;20021;-78
2022/01/07 05:46:38;;;;;;;12.57;6.88;;;-0.10;99.90;;;;;;5037435;28;20029;-78
2022/01/07 05:49:03;;;;;;;10.65;7.60;;;-0.10;99.90;;;;;;5039285;28;20029;-78
2022/01/07 05:51:29;;;;;;;9.80;7.10;;;0.00;99.90;;;;;;5037369;28;20033;-79
2022/01/07 05:53:54;;;;;;;12.88;7.38;;;0.00;99.90;;;;;;5035588;28;20025;-80
2022/01/07 05:56:20;;;;;;;9.98;7.00;;;0.10;99.90;;;;;;5035674;28;20128;-78
2022/01/07 05:58:46;;;;;;;10.05;6.90;;;0.00;99.90;;;;;;5034945;28;20041;-78
2022/01/07 06:01:12;;;;;;;10.25;7.07;;;0.10;99.90;;;;;;5036026;28;20671;-78
2022/01/07 06:03:41;;;;;;;12.70;7.50;;;0.10;99.90;;;;;;5036074;28;20076;-77
2022/01/07 06:06:07;;;;;;;10.85;7.72;;;0.10;99.90;;;;;;5035891;28;20029;-77
2022/01/07 06:08:33;;;;;;;11.73;7.72;;;0.10;99.90;;;;;;5035731;28;20014;-79
2022/01/07 06:10:58;;;;;;;9.50;7.18;;;0.10;99.90;;;;;;5033855;28;20124;-78
2022/01/07 06:13:24;;;;;;;11.90;7.85;;;0.20;99.90;;;;;;5035637;28;20404;-77
2022/01/07 06:15:49;;;;;;;12.85;7.75;;;0.10;99.90;;;;;;5036535;28;20084;-77
2022/01/07 06:18:15;;;;;;;12.63;7.82;;;0.10;99.90;;;;;;5041572;28;20433;-78
2022/01/07 06:20:41;;;;;;;11.48;7.93;;;0.10;99.90;;;;;;5041039;28;20481;-79
2022/01/07 06:23:06;;;;;;;10.65;7.55;;;0.20;99.90;;;;;;5037910;28;20033;-77
2022/01/07 06:25:32;;;;;;;13.95;8.57;;;0.20;99.90;;;;;;5038294;28;20028;-78
2022/01/07 06:27:58;;;;;;;10.43;8.38;;;0.30;99.90;;;;;;5039070;28;20025;-78
2022/01/07 06:30:23;;;;;;;15.48;9.13;;;0.30;99.90;;;;;;5038685;28;20025;-78
2022/01/07 06:32:49;;;;;;;9.68;8.18;;;0.40;99.90;;;;;;5047014;28;20029;-76
2022/01/07 06:35:15;;;;;;;11.88;7.95;;;0.40;99.90;;;;;;5055611;28;20408;-77
2022/01/07 06:37:40;;;;;;;10.73;8.52;;;0.40;99.90;;;;;;5055688;28;20030;-77
2022/01/07 06:40:07;;;;;;;10.38;7.75;;;0.50;99.90;;;;;;5046332;28;20029;-77
2022/01/07 06:42:33;;;;;;;13.57;9.30;;;0.60;99.90;;;;;;5040793;28;20100;-77
2022/01/07 06:44:58;;;;;;;11.77;8.35;;;0.70;99.90;;;;;;5036364;28;20057;-78
2022/01/07 06:47:25;;;;;;;14.15;9.00;;;0.70;99.90;;;;;;5042486;28;20368;-78
2022/01/07 06:49:50;;;;;;;15.02;8.90;;;0.70;99.90;;;;;;5039155;28;20037;-78
2022/01/07 06:52:16;;;;;;;11.13;8.02;;;0.70;99.90;;;;;;5038957;28;20033;-77
2022/01/07 06:54:42;;;;;;;12.02;8.80;;;0.60;99.90;;;;;;5039241;28;20029;-78
2022/01/07 06:57:08;;;;;;;14.50;10.55;;;0.70;99.90;;;;;;5050639;28;20020;-78
2022/01/07 06:59:34;;;;;;;13.40;8.68;;;0.60;99.90;;;;;;5049268;28;20055;-78
2022/01/07 07:01:59;;;;;;;14.63;8.88;;;0.60;99.90;;;;;;5044881;28;20038;-77
2022/01/07 07:04:25;;;;;;;10.98;8.40;;;0.50;99.90;;;;;;5043273;28;20025;-79
2022/01/07 07:06:51;;;;;;;10.25;8.80;;;0.50;99.90;;;;;;5041740;28;20049;-78
2022/01/07 07:09:18;;;;;;;12.07;7.65;;;0.60;99.90;;;;;;5040491;28;20056;-78
2022/01/07 07:11:43;;;;;;;12.60;8.68;;;0.70;99.90;;;;;;5037470;28;20055;-77
2022/01/07 07:14:10;;;;;;;13.95;8.40;;;0.70;99.90;;;;;;5037150;28;20114;-77
2022/01/07 07:16:36;;;;;;;11.57;8.02;;;0.70;99.90;;;;;;5037260;28;20029;-78
2022/01/07 07:19:02;;;;;;;9.13;7.32;;;0.80;99.90;;;;;;5037655;28;20033;-78
2022/01/07 07:21:28;;;;;;;13.95;8.23;;;0.80;99.90;;;;;;5037332;28;20075;-78
2022/01/07 07:23:53;;;;;;;11.43;9.00;;;0.70;99.90;;;;;;5037382;28;20032;-77
2022/01/07 07:26:19;;;;;;;13.50;8.73;;;0.80;99.90;;;;;;5036882;28;20440;-79
2022/01/07 07:28:46;;;;;;;13.38;8.68;;;0.80;99.90;;;;;;5036539;28;20021;-78
2022/01/07 07:31:14;;;;;;;13.15;8.55;;;0.80;99.90;;;;;;5035406;28;20413;-78
2022/01/07 07:38:51;;;;;;;12.00;8.18;;;0.70;99.90;;;;;;5039442;28;20025;-78
2022/01/07 07:41:18;;;;;;;11.70;8.20;;;0.80;99.90;;;;;;5039143;28;20030;-80
2022/01/07 07:43:47;;;;;;;13.70;8.30;;;1.00;99.90;;;;;;5037924;28;20036;-79
2022/01/07 07:46:13;;;;;;;10.93;8.48;;;1.00;99.90;;;;;;5039992;28;20026;-77
2022/01/07 07:48:39;;;;;;;12.77;8.05;;;1.20;99.90;;;;;;5044751;28;20025;-77
2022/01/07 07:51:04;;;;;;;12.90;8.20;;;1.00;99.90;;;;;;5037702;28;20044;-78
2022/01/07 07:53:30;;;;;;;14.30;7.85;;;1.00;99.90;;;;;;5036574;28;20045;-77
2022/01/07 07:55:56;;;;;;;12.35;8.60;;;1.10;99.90;;;;;;5039303;28;20104;-77
2022/01/07 07:58:23;;;;;;;9.80;7.78;;;1.10;99.90;;;;;;5036426;28;20064;-77
2022/01/07 08:00:49;;;;;;;9.15;7.50;;;1.20;99.90;;;;;;5037305;28;20112;-78
2022/01/07 08:03:15;;;;;;;9.77;8.20;;;1.10;99.90;;;;;;5040246;28;20026;-78
2022/01/07 08:05:42;;;;;;;11.82;7.47;;;1.30;99.90;;;;;;5040884;28;20060;-78
2022/01/07 08:08:08;;;;;;;11.23;8.35;;;1.30;99.90;;;;;;5037301;28;20021;-77
2022/01/07 08:10:33;;;;;;;9.85;6.97;;;1.40;99.90;;;;;;5035126;28;20025;-77
2022/01/07 08:18:38;;;;;;;11.90;7.97;;;1.40;99.90;;;;;;4972055;28;20104;-77
2022/01/07 08:21:08;;;;;;;10.68;7.72;;;1.50;99.90;;;;;;5023029;28;20049;-78
2022/01/07 08:23:36;;;;;;;12.40;8.90;;;1.60;99.90;;;;;;5035369;28;20037;-77
2022/01/07 08:26:08;;;;;;;9.27;6.72;;;1.70;99.90;;;;;;5048535;28;20056;-78
2022/01/07 08:28:40;;;;;;;10.75;7.03;;;1.60;99.90;;;;;;5042495;28;20021;-80
2022/01/07 08:36:27;;;;;;;7.60;6.72;;;1.60;99.90;;;;;;5039713;28;20575;-77
2022/01/07 08:38:53;;;;;;;13.57;8.27;;;1.60;99.90;;;;;;5040834;28;20029;-79
2022/01/07 08:41:22;;;;;;;15.63;8.00;;;1.60;99.90;;;;;;5040587;28;20396;-78
2022/01/07 08:43:48;;;;;;;8.88;6.55;;;1.70;99.90;;;;;;5039075;28;20097;-78
2022/01/07 08:46:14;;;;;;;10.65;7.97;;;1.80;99.90;;;;;;5057791;22;20081;-72
2022/01/07 08:48:40;;;;;;;10.90;7.97;;;1.90;99.90;;;;;;5025806;28;20033;-73
2022/01/07 08:51:07;;;;;;;10.02;6.80;;;1.90;99.90;;;;;;5016184;28;20436;-73
2022/01/07 08:53:33;;;;;;;11.25;7.45;;;1.90;99.90;;;;;;5014885;28;20026;-73
2022/01/07 08:55:59;;;;;;;8.75;7.47;;;1.80;99.90;;;;;;5015792;28;20026;-72
2022/01/07 08:58:25;;;;;;;9.32;6.55;;;1.80;99.90;;;;;;5032157;28;20049;-72
2022/01/07 09:00:50;;;;;;;9.13;7.13;;;2.00;99.90;;;;;;5019521;28;20026;-73
2022/01/07 09:03:16;;;;;;;10.50;7.35;;;1.90;99.90;;;;;;5023281;28;20030;-73
2022/01/07 09:05:42;;;;;;;9.55;7.13;;;1.90;99.90;;;;;;5017251;28;20102;-73
2022/01/07 09:08:10;;;;;;;10.20;7.07;;;1.90;99.90;;;;;;5027557;28;20044;-73
2022/01/07 09:10:36;;;;;;;10.55;8.00;;;2.00;99.90;;;;;;5039807;28;20026;-73
2022/01/07 09:13:02;;;;;;;13.82;10.15;;;2.10;99.90;;;;;;5040182;28;20070;-72
2022/01/07 09:15:28;;;;;;;9.30;7.70;;;2.00;99.90;;;;;;5040024;28;20077;-73
2022/01/07 09:17:54;;;;;;;10.38;7.25;;;2.00;99.90;;;;;;5040157;28;20026;-73
2022/01/07 09:20:21;;;;;;;8.70;7.32;;;2.10;99.90;;;;;;5038572;28;20058;-73
2022/01/07 09:22:47;;;;;;;11.20;6.72;;;2.00;99.90;;;;;;5039531;28;20045;-72
2022/01/07 09:25:13;;;;;;;11.10;7.10;;;2.00;99.90;;;;;;5040005;28;20038;-74
2022/01/07 09:27:40;;;;;;;8.32;6.72;;;2.10;99.90;;;;;;5039886;28;20041;-73
2022/01/07 09:30:25;;;;;;;9.15;6.60;;;2.10;99.90;;;;;;5039708;28;20022;-73
2022/01/07 09:32:50;;;;;;;9.43;7.45;;;2.10;99.90;;;;;;5039588;28;20101;-73
2022/01/07 09:35:17;;;;;;;7.00;5.70;;;2.20;99.90;;;;;;5038861;28;20022;-75
2022/01/07 09:37:43;;;;;;;10.32;6.90;;;2.10;99.90;;;;;;5038746;28;20014;-72
2022/01/07 09:40:10;;;;;;;8.25;6.00;;;2.10;99.90;;;;;;5039398;28;20053;-73
2022/01/07 09:42:36;;;;;;;8.27;6.15;;;2.10;99.90;;;;;;5039460;28;20057;-72
2022/01/07 09:45:02;;;;;;;6.15;5.55;;;2.10;99.90;;;;;;5039451;28;20082;-72
2022/01/07 09:47:28;;;;;;;7.47;5.43;;;2.20;99.90;;;;;;5055277;28;20113;-72
2022/01/07 09:49:53;;;;;;;8.25;5.53;;;2.50;99.90;;;;;;5039520;28;20046;-71
2022/01/07 09:52:19;;;;;;;7.15;5.25;;;2.50;99.90;;;;;;5039330;28;20033;-73
2022/01/07 09:54:47;;;;;;;7.15;5.55;;;2.40;99.90;;;;;;5039658;28;20022;-72
2022/01/07 09:57:13;;;;;;;7.53;5.60;;;2.30;99.90;;;;;;5039488;28;20029;-73
2022/01/07 09:59:39;;;;;;;6.15;5.20;;;2.30;99.90;;;;;;5039349;28;20085;-72
2022/01/07 10:02:07;;;;;;;6.20;5.60;;;2.40;99.90;;;;;;5039011;28;20014;-73
2022/01/07 10:04:38;;;;;;;8.85;7.05;;;2.50;99.90;;;;;;5039315;28;20056;-73
2022/01/07 10:07:21;;;;;;;9.95;5.03;;;2.50;99.90;;;;;;5039128;28;20061;-72
2022/01/07 10:10:06;;;;;;;6.43;5.82;;;2.50;99.90;;;;;;5039111;28;20018;-72
2022/01/07 10:12:48;;;;;;;8.68;5.32;;;2.40;99.90;;;;;;5036833;28;20060;-73
2022/01/07 10:15:19;;;;;;;7.13;5.43;;;2.50;99.90;;;;;;5037565;28;20030;-73
2022/01/07 10:17:58;;;;;;;6.75;6.05;;;2.50;99.90;;;;;;5038193;28;20305;-72
2022/01/07 10:20:32;;;;;;;11.25;6.63;;;2.60;99.90;;;;;;5054030;28;20030;-74
2022/01/07 10:23:02;;;;;;;8.15;6.05;;;2.70;99.90;;;;;;5038611;28;20014;-73
2022/01/07 10:25:30;;;;;;;9.23;6.18;;;2.60;99.90;;;;;;5038307;28;20014;-73
2022/01/07 10:28:04;;;;;;;7.18;5.65;;;2.60;99.90;;;;;;5038092;28;20029;-72
2022/01/07 10:30:47;;;;;;;7.72;5.50;;;2.50;99.90;;;;;;5038346;28;20053;-72
2022/01/07 10:33:19;;;;;;;6.80;6.10;;;2.50;99.90;;;;;;5038539;28;20040;-73
2022/01/07 10:35:47;;;;;;;7.13;6.10;;;2.50;99.90;;;;;;5038630;28;20006;-72
2022/01/07 10:38:19;;;;;;;8.07;6.20;;;2.50;99.90;;;;;;5038676;28;20026;-73
2022/01/07 10:40:45;;;;;;;6.57;5.63;;;2.40;99.90;;;;;;5037923;28;20026;-73
2022/01/07 10:43:12;;;;;;;7.80;6.18;;;2.30;99.90;;;;;;5038097;28;20050;-72
2022/01/07 10:45:40;;;;;;;8.73;6.35;;;2.30;99.90;;;;;;5037512;28;20089;-74
2022/01/07 10:48:09;;;;;;;8.80;6.65;;;2.30;99.90;;;;;;5037324;28;20017;-72
2022/01/07 10:50:46;;;;;;;7.93;6.40;;;2.20;99.90;;;;;;5038075;28;20086;-72
2022/01/07 10:53:16;;;;;;;8.40;6.47;;;2.20;99.90;;;;;;5035361;28;20018;-72
2022/01/07 10:56:07;;;;;;;7.70;6.50;;;2.20;99.90;;;;;;5037235;28;20037;-71
2022/01/07 10:58:50;;;;;;;7.55;6.75;;;2.20;99.90;;;;;;5037003;28;20041;-73
2022/01/07 11:01:21;;;;;;;9.73;7.15;;;2.10;99.90;;;;;;5036905;28;20060;-73
2022/01/07 11:03:52;;;;;;;11.50;8.05;;;2.20;99.90;;;;;;5037853;28;20041;-74
2022/01/07 11:06:18;;;;;;;10.68;7.95;;;2.10;99.90;;;;;;5035654;28;20032;-74
2022/01/07 11:08:44;;;;;;;9.45;7.32;;;2.10;99.90;;;;;;5035152;28;20053;-73
2022/01/07 11:11:11;;;;;;;10.07;7.15;;;2.10;99.90;;;;;;5034572;28;20094;-73
2022/01/07 11:13:37;;;;;;;8.73;7.45;;;1.90;99.90;;;;;;5051707;28;20085;-73
2022/01/07 11:16:04;;;;;;;12.48;7.63;;;2.00;99.90;;;;;;5036266;28;20030;-73
2022/01/07 11:18:31;;;;;;;10.13;7.95;;;1.90;99.90;;;;;;5035456;28;20110;-73
2022/01/07 11:20:58;;;;;;;10.15;7.05;;;2.00;99.90;;;;;;5036313;28;20033;-73
2022/01/07 11:23:30;;;;;;;11.18;7.85;;;2.00;99.90;;;;;;5036586;28;20052;-73
2022/01/07 11:26:04;;;;;;;10.15;7.95;;;1.90;99.90;;;;;;5035933;28;20033;-74
2022/01/07 11:28:30;;;;;;;10.10;7.60;;;1.90;99.90;;;;;;5036798;28;20037;-73
2022/01/07 11:31:13;;;;;;;11.68;8.00;;;2.00;99.90;;;;;;5036667;28;20038;-74
2022/01/07 11:33:39;;;;;;;10.43;7.28;;;2.20;99.90;;;;;;5035942;28;20025;-72
2022/01/07 11:36:09;;;;;;;9.57;6.70;;;2.30;99.90;;;;;;5034641;28;20029;-72
2022/01/07 11:38:43;;;;;;;9.90;7.07;;;2.30;99.90;;;;;;5036646;28;20074;-72
2022/01/07 11:41:14;;;;;;;14.00;9.30;;;2.40;99.90;;;;;;5035825;28;20110;-72
2022/01/07 11:43:47;;;;;;;13.90;9.88;;;2.40;99.90;;;;;;5036669;28;20010;-73
2022/01/07 11:46:29;;;;;;;10.48;6.90;;;2.40;99.90;;;;;;5036286;28;20065;-73
2022/01/07 11:48:58;;;;;;;13.65;7.30;;;2.30;99.90;;;;;;5051906;28;20037;-72
2022/01/07 11:51:38;;;;;;;10.10;7.57;;;2.40;99.90;;;;;;5035851;28;20034;-74
2022/01/07 11:54:06;;;;;;;10.38;8.10;;;2.70;99.90;;;;;;5036088;28;20038;-72
2022/01/07 11:56:33;;;;;;;9.38;7.05;;;2.70;99.90;;;;;;5036305;28;20061;-73
2022/01/07 11:59:11;;;;;;;8.75;6.90;;;2.70;99.90;;;;;;5053949;28;20045;-72
2022/01/07 12:01:40;;;;;;;11.70;7.70;;;2.60;99.90;;;;;;5040338;28;20068;-72
2022/01/07 12:04:15;;;;;;;10.10;7.78;;;2.60;99.90;;;;;;5050729;28;20082;-74
2022/01/07 12:06:41;;;;;;;11.10;6.68;;;2.70;99.90;;;;;;5037459;28;20006;-73
2022/01/07 12:09:11;;;;;;;8.73;6.45;;;2.80;99.90;;;;;;5040213;28;20018;-75
2022/01/07 12:11:47;;;;;;;8.60;7.07;;;2.80;99.90;;;;;;5040092;28;20022;-73
2022/01/07 12:14:16;;;;;;;9.90;6.72;;;3.00;99.90;;;;;;5040849;28;20033;-73
2022/01/07 12:16:49;;;;;;;11.48;6.60;;;2.90;99.90;;;;;;5040804;28;20010;-73
2022/01/07 12:19:25;;;;;;;8.27;7.20;;;3.00;99.90;;;;;;5040889;28;20029;-72
2022/01/07 12:21:53;;;;;;;9.93;6.90;;;3.00;99.90;;;;;;5040608;28;20106;-72
2022/01/07 12:24:26;;;;;;;7.68;5.90;;;3.00;99.90;;;;;;5040940;28;20042;-73
2022/01/07 12:27:11;;;;;;;8.18;6.00;;;3.00;99.90;;;;;;5040287;28;20025;-73
2022/01/07 12:29:39;;;;;;;7.25;5.75;;;3.10;99.90;;;;;;5040931;28;20006;-72
2022/01/07 12:32:06;;;;;;;8.68;7.00;;;3.20;99.90;;;;;;5040628;28;20018;-73
2022/01/07 12:34:40;;;;;;;12.93;6.30;;;3.20;99.90;;;;;;5040370;28;20030;-73
2022/01/07 12:37:07;;;;;;;8.52;7.07;;;3.30;99.90;;;;;;5040302;28;20045;-73
2022/01/07 12:39:35;;;;;;;7.25;6.15;;;3.50;99.90;;;;;;5040330;28;20053;-72
2022/01/07 12:42:01;;;;;;;7.95;5.47;;;3.40;99.90;;;;;;5040158;28;20070;-72
2022/01/07 12:44:34;;;;;;;6.03;5.43;;;3.50;99.90;;;;;;5039752;28;20041;-73
2022/01/07 12:46:59;;;;;;;7.70;5.97;;;3.50;99.90;;;;;;5040287;28;20134;-72
2022/01/07 12:49:46;;;;;;;8.40;5.45;;;3.60;99.90;;;;;;5040368;28;20026;-72
2022/01/07 12:52:29;;;;;;;7.13;6.18;;;3.60;99.90;;;;;;5039892;28;20026;-72
2022/01/07 12:55:01;;;;;;;6.90;5.65;;;3.70;99.90;;;;;;5055932;28;20239;-72
2022/01/07 12:57:37;;;;;;;6.75;5.93;;;3.70;99.90;;;;;;5039901;28;20022;-71
2022/01/07 13:00:16;;;;;;;7.13;5.30;;;3.80;99.90;;;;;;5039452;28;20080;-74
2022/01/07 13:02:45;;;;;;;5.93;5.32;;;3.80;99.90;;;;;;5041817;28;20025;-73